sensor_id;sensor_type;location;lat;lon;timestamp;temperature;humidity
71128;SHT30;59249;59.736;30.568;2022-11-20T00:02:13;-4.27;78.92
71128;SHT30;59249;59.736;30.568;2022-11-20T00:04:43;-4.32;78.67
71128;SHT30;59249;59.736;30.568;2022-11-20T00:07:11;-4.33;78.77
71128;SHT30;59249;59.736;30.568;2022-11-20T00:09:56;-4.30;78.89
71128;SHT30;59249;59.736;30.568;2022-11-20T00:12:26;-4.22;79.00
71128;SHT30;59249;59.736;30.568;2022-11-20T00:15:03;-4.29;79.04
71128;SHT30;59249;59.736;30.568;2022-11-20T00:17:38;-4.32;79.06
71128;SHT30;59249;59.736;30.568;2022-11-20T00:20:09;-4.27;78.86
71128;SHT30;59249;59.736;30.568;2022-11-20T00:22:38;-4.25;79.11
71128;SHT30;59249;59.736;30.568;2022-11-20T00:25:14;-4.21;79.28
71128;SHT30;59249;59.736;30.568;2022-11-20T00:27:43;-4.21;78.99
71128;SHT30;59249;59.736;30.568;2022-11-20T00:30:18;-4.18;79.03
71128;SHT30;59249;59.736;30.568;2022-11-20T00:32:56;-4.21;79.12
71128;SHT30;59249;59.736;30.568;2022-11-20T00:35:28;-4.15;79.35
71128;SHT30;59249;59.736;30.568;2022-11-20T00:38:11;-4.15;79.34
71128;SHT30;59249;59.736;30.568;2022-11-20T00:40:43;-4.12;79.46
71128;SHT30;59249;59.736;30.568;2022-11-20T00:43:19;-4.12;79.40
71128;SHT30;59249;59.736;30.568;2022-11-20T00:45:58;-4.14;79.44
71128;SHT30;59249;59.736;30.568;2022-11-20T00:48:28;-4.09;79.48
71128;SHT30;59249;59.736;30.568;2022-11-20T00:50:57;-4.16;79.32
71128;SHT30;59249;59.736;30.568;2022-11-20T00:53:28;-4.12;79.70
71128;SHT30;59249;59.736;30.568;2022-11-20T00:56:00;-4.11;79.73
71128;SHT30;59249;59.736;30.568;2022-11-20T00:58:32;-4.14;79.75
71128;SHT30;59249;59.736;30.568;2022-11-20T01:01:04;-4.15;79.64
71128;SHT30;59249;59.736;30.568;2022-11-20T01:03:37;-4.19;79.84
71128;SHT30;59249;59.736;30.568;2022-11-20T01:06:11;-4.13;79.81
71128;SHT30;59249;59.736;30.568;2022-11-20T01:08:42;-4.09;79.88
71128;SHT30;59249;59.736;30.568;2022-11-20T01:11:15;-4.04;79.71
71128;SHT30;59249;59.736;30.568;2022-11-20T01:13:46;-4.06;79.74
71128;SHT30;59249;59.736;30.568;2022-11-20T01:16:22;-4.18;79.79
71128;SHT30;59249;59.736;30.568;2022-11-20T01:18:56;-4.13;80.05
71128;SHT30;59249;59.736;30.568;2022-11-20T01:21:31;-4.20;80.08
71128;SHT30;59249;59.736;30.568;2022-11-20T01:24:04;-4.17;80.12
71128;SHT30;59249;59.736;30.568;2022-11-20T01:26:37;-4.16;80.12
71128;SHT30;59249;59.736;30.568;2022-11-20T01:29:17;-4.15;80.16
71128;SHT30;59249;59.736;30.568;2022-11-20T01:31:50;-4.11;80.11
71128;SHT30;59249;59.736;30.568;2022-11-20T01:34:23;-4.11;80.02
71128;SHT30;59249;59.736;30.568;2022-11-20T01:36:56;-4.02;80.03
71128;SHT30;59249;59.736;30.568;2022-11-20T01:39:29;-4.08;79.96
71128;SHT30;59249;59.736;30.568;2022-11-20T01:42:00;-3.99;79.96
71128;SHT30;59249;59.736;30.568;2022-11-20T01:44:54;-3.99;79.83
71128;SHT30;59249;59.736;30.568;2022-11-20T01:47:40;-4.02;79.95
71128;SHT30;59249;59.736;30.568;2022-11-20T01:50:18;-4.04;80.17
71128;SHT30;59249;59.736;30.568;2022-11-20T01:52:56;-4.00;80.30
71128;SHT30;59249;59.736;30.568;2022-11-20T01:55:39;-3.97;80.28
71128;SHT30;59249;59.736;30.568;2022-11-20T01:58:13;-3.94;80.22
71128;SHT30;59249;59.736;30.568;2022-11-20T02:00:53;-3.97;80.18
71128;SHT30;59249;59.736;30.568;2022-11-20T02:03:36;-3.87;80.21
71128;SHT30;59249;59.736;30.568;2022-11-20T02:06:14;-3.90;80.10
71128;SHT30;59249;59.736;30.568;2022-11-20T02:08:48;-3.88;80.05
71128;SHT30;59249;59.736;30.568;2022-11-20T02:11:27;-3.99;80.26
71128;SHT30;59249;59.736;30.568;2022-11-20T02:14:15;-3.99;80.44
71128;SHT30;59249;59.736;30.568;2022-11-20T02:16:53;-3.96;80.23
71128;SHT30;59249;59.736;30.568;2022-11-20T02:19:41;-3.96;80.38
71128;SHT30;59249;59.736;30.568;2022-11-20T02:22:14;-3.95;80.40
71128;SHT30;59249;59.736;30.568;2022-11-20T02:24:51;-4.03;80.42
71128;SHT30;59249;59.736;30.568;2022-11-20T02:27:26;-4.01;80.40
71128;SHT30;59249;59.736;30.568;2022-11-20T02:30:01;-4.09;80.58
71128;SHT30;59249;59.736;30.568;2022-11-20T02:32:38;-4.06;80.74
71128;SHT30;59249;59.736;30.568;2022-11-20T02:35:37;-4.05;80.79
71128;SHT30;59249;59.736;30.568;2022-11-20T02:38:02;-4.00;80.69
71128;SHT30;59249;59.736;30.568;2022-11-20T02:40:32;-4.06;80.79
71128;SHT30;59249;59.736;30.568;2022-11-20T02:43:03;-3.97;80.57
71128;SHT30;59249;59.736;30.568;2022-11-20T02:45:45;-3.97;80.69
71128;SHT30;59249;59.736;30.568;2022-11-20T02:48:18;-3.97;80.74
71128;SHT30;59249;59.736;30.568;2022-11-20T02:50:50;-3.94;80.73
71128;SHT30;59249;59.736;30.568;2022-11-20T02:53:35;-3.93;80.77
71128;SHT30;59249;59.736;30.568;2022-11-20T02:56:15;-3.93;80.54
71128;SHT30;59249;59.736;30.568;2022-11-20T02:58:52;-3.90;80.70
71128;SHT30;59249;59.736;30.568;2022-11-20T03:01:23;-3.89;80.37
71128;SHT30;59249;59.736;30.568;2022-11-20T03:03:55;-3.87;80.37
71128;SHT30;59249;59.736;30.568;2022-11-20T03:06:40;-3.92;80.50
71128;SHT30;59249;59.736;30.568;2022-11-20T03:09:21;-3.97;80.64
71128;SHT30;59249;59.736;30.568;2022-11-20T03:11:54;-3.93;80.63
71128;SHT30;59249;59.736;30.568;2022-11-20T03:14:31;-3.94;80.56
71128;SHT30;59249;59.736;30.568;2022-11-20T03:17:06;-3.89;80.53
71128;SHT30;59249;59.736;30.568;2022-11-20T03:19:39;-3.89;80.46
71128;SHT30;59249;59.736;30.568;2022-11-20T03:22:09;-3.87;80.34
71128;SHT30;59249;59.736;30.568;2022-11-20T03:24:41;-3.88;80.32
71128;SHT30;59249;59.736;30.568;2022-11-20T03:27:21;-3.85;80.31
71128;SHT30;59249;59.736;30.568;2022-11-20T03:30:07;-3.85;80.09
71128;SHT30;59249;59.736;30.568;2022-11-20T03:32:56;-3.87;80.05
71128;SHT30;59249;59.736;30.568;2022-11-20T03:35:25;-3.87;80.04
71128;SHT30;59249;59.736;30.568;2022-11-20T03:37:59;-3.87;80.10
71128;SHT30;59249;59.736;30.568;2022-11-20T03:40:33;-3.83;79.86
71128;SHT30;59249;59.736;30.568;2022-11-20T03:43:10;-3.90;80.01
71128;SHT30;59249;59.736;30.568;2022-11-20T03:45:39;-3.81;80.07
71128;SHT30;59249;59.736;30.568;2022-11-20T03:48:07;-3.87;79.88
71128;SHT30;59249;59.736;30.568;2022-11-20T03:50:38;-3.78;79.89
71128;SHT30;59249;59.736;30.568;2022-11-20T03:53:06;-3.83;79.85
71128;SHT30;59249;59.736;30.568;2022-11-20T03:55:36;-3.84;79.81
71128;SHT30;59249;59.736;30.568;2022-11-20T03:58:27;-3.86;79.95
71128;SHT30;59249;59.736;30.568;2022-11-20T04:01:04;-3.96;79.85
71128;SHT30;59249;59.736;30.568;2022-11-20T04:03:39;-3.88;79.79
71128;SHT30;59249;59.736;30.568;2022-11-20T04:06:20;-3.89;79.93
71128;SHT30;59249;59.736;30.568;2022-11-20T04:09:09;-3.90;80.15
71128;SHT30;59249;59.736;30.568;2022-11-20T04:11:42;-3.89;80.31
71128;SHT30;59249;59.736;30.568;2022-11-20T04:14:15;-3.85;80.67
71128;SHT30;59249;59.736;30.568;2022-11-20T04:16:45;-3.95;80.59
71128;SHT30;59249;59.736;30.568;2022-11-20T04:19:16;-3.91;81.00
71128;SHT30;59249;59.736;30.568;2022-11-20T04:21:45;-3.95;81.38
71128;SHT30;59249;59.736;30.568;2022-11-20T04:24:23;-3.97;81.43
71128;SHT30;59249;59.736;30.568;2022-11-20T04:26:52;-3.97;81.53
71128;SHT30;59249;59.736;30.568;2022-11-20T04:29:28;-4.06;81.74
71128;SHT30;59249;59.736;30.568;2022-11-20T04:32:00;-4.04;82.03
71128;SHT30;59249;59.736;30.568;2022-11-20T04:34:46;-4.06;82.30
71128;SHT30;59249;59.736;30.568;2022-11-20T04:37:15;-4.13;82.04
71128;SHT30;59249;59.736;30.568;2022-11-20T04:39:52;-4.14;81.97
71128;SHT30;59249;59.736;30.568;2022-11-20T04:42:28;-4.21;82.01
71128;SHT30;59249;59.736;30.568;2022-11-20T04:45:00;-4.31;81.93
71128;SHT30;59249;59.736;30.568;2022-11-20T04:47:30;-4.30;81.96
71128;SHT30;59249;59.736;30.568;2022-11-20T04:50:04;-4.37;81.92
71128;SHT30;59249;59.736;30.568;2022-11-20T04:52:57;-4.33;81.94
71128;SHT30;59249;59.736;30.568;2022-11-20T04:55:31;-4.37;81.86
71128;SHT30;59249;59.736;30.568;2022-11-20T04:58:01;-4.23;82.00
71128;SHT30;59249;59.736;30.568;2022-11-20T05:00:32;-4.31;81.81
71128;SHT30;59249;59.736;30.568;2022-11-20T05:03:06;-4.29;81.91
71128;SHT30;59249;59.736;30.568;2022-11-20T05:05:37;-4.29;81.77
71128;SHT30;59249;59.736;30.568;2022-11-20T05:08:21;-4.24;81.61
71128;SHT30;59249;59.736;30.568;2022-11-20T05:11:01;-4.21;81.79
71128;SHT30;59249;59.736;30.568;2022-11-20T05:13:32;-4.24;81.47
71128;SHT30;59249;59.736;30.568;2022-11-20T05:16:05;-4.22;81.31
71128;SHT30;59249;59.736;30.568;2022-11-20T05:18:36;-4.15;81.42
71128;SHT30;59249;59.736;30.568;2022-11-20T05:21:12;-4.21;81.19
71128;SHT30;59249;59.736;30.568;2022-11-20T05:23:42;-4.30;81.36
71128;SHT30;59249;59.736;30.568;2022-11-20T05:26:18;-4.22;81.40
71128;SHT30;59249;59.736;30.568;2022-11-20T05:28:47;-4.13;81.39
71128;SHT30;59249;59.736;30.568;2022-11-20T05:31:20;-4.19;81.19
71128;SHT30;59249;59.736;30.568;2022-11-20T05:33:56;-4.15;81.14
71128;SHT30;59249;59.736;30.568;2022-11-20T05:36:27;-4.15;81.06
71128;SHT30;59249;59.736;30.568;2022-11-20T05:39:13;-4.15;80.94
71128;SHT30;59249;59.736;30.568;2022-11-20T05:41:46;-4.15;80.99
71128;SHT30;59249;59.736;30.568;2022-11-20T05:44:35;-4.15;80.89
71128;SHT30;59249;59.736;30.568;2022-11-20T05:47:06;-4.22;80.83
71128;SHT30;59249;59.736;30.568;2022-11-20T05:49:36;-4.21;80.95
71128;SHT30;59249;59.736;30.568;2022-11-20T05:52:06;-4.13;80.97
71128;SHT30;59249;59.736;30.568;2022-11-20T05:54:38;-4.14;81.02
71128;SHT30;59249;59.736;30.568;2022-11-20T05:57:07;-4.12;80.85
71128;SHT30;59249;59.736;30.568;2022-11-20T05:59:35;-4.13;81.01
71128;SHT30;59249;59.736;30.568;2022-11-20T06:02:12;-4.11;80.90
71128;SHT30;59249;59.736;30.568;2022-11-20T06:04:44;-4.12;80.89
71128;SHT30;59249;59.736;30.568;2022-11-20T06:07:14;-4.09;80.91
71128;SHT30;59249;59.736;30.568;2022-11-20T06:09:43;-4.08;80.88
71128;SHT30;59249;59.736;30.568;2022-11-20T06:12:12;-4.03;80.68
71128;SHT30;59249;59.736;30.568;2022-11-20T06:14:51;-3.96;80.71
71128;SHT30;59249;59.736;30.568;2022-11-20T06:17:22;-4.08;80.55
71128;SHT30;59249;59.736;30.568;2022-11-20T06:19:51;-4.08;80.56
71128;SHT30;59249;59.736;30.568;2022-11-20T06:22:20;-4.14;80.48
71128;SHT30;59249;59.736;30.568;2022-11-20T06:24:49;-4.07;80.56
71128;SHT30;59249;59.736;30.568;2022-11-20T06:27:19;-4.12;80.30
71128;SHT30;59249;59.736;30.568;2022-11-20T06:29:57;-4.08;80.13
71128;SHT30;59249;59.736;30.568;2022-11-20T06:32:30;-4.13;80.16
71128;SHT30;59249;59.736;30.568;2022-11-20T06:34:59;-4.06;80.30
71128;SHT30;59249;59.736;30.568;2022-11-20T06:37:29;-4.04;80.26
71128;SHT30;59249;59.736;30.568;2022-11-20T06:40:00;-4.00;80.24
71128;SHT30;59249;59.736;30.568;2022-11-20T06:42:30;-3.99;80.17
71128;SHT30;59249;59.736;30.568;2022-11-20T06:45:01;-3.99;80.15
71128;SHT30;59249;59.736;30.568;2022-11-20T06:47:32;-3.96;80.06
71128;SHT30;59249;59.736;30.568;2022-11-20T06:50:04;-3.97;79.95
71128;SHT30;59249;59.736;30.568;2022-11-20T06:52:36;-3.94;80.18
71128;SHT30;59249;59.736;30.568;2022-11-20T06:55:09;-3.90;80.03
71128;SHT30;59249;59.736;30.568;2022-11-20T06:57:39;-3.98;79.89
71128;SHT30;59249;59.736;30.568;2022-11-20T07:00:09;-3.96;79.98
71128;SHT30;59249;59.736;30.568;2022-11-20T07:02:46;-3.99;79.90
71128;SHT30;59249;59.736;30.568;2022-11-20T07:05:15;-4.01;80.22
71128;SHT30;59249;59.736;30.568;2022-11-20T07:07:45;-4.01;80.14
71128;SHT30;59249;59.736;30.568;2022-11-20T07:10:14;-3.95;80.23
71128;SHT30;59249;59.736;30.568;2022-11-20T07:12:49;-3.97;80.09
71128;SHT30;59249;59.736;30.568;2022-11-20T07:15:59;-3.99;80.23
71128;SHT30;59249;59.736;30.568;2022-11-20T07:18:30;-3.99;80.32
71128;SHT30;59249;59.736;30.568;2022-11-20T07:21:01;-3.95;80.14
71128;SHT30;59249;59.736;30.568;2022-11-20T07:23:31;-3.90;80.32
71128;SHT30;59249;59.736;30.568;2022-11-20T07:26:05;-3.90;80.15
71128;SHT30;59249;59.736;30.568;2022-11-20T07:28:35;-3.81;80.23
71128;SHT30;59249;59.736;30.568;2022-11-20T07:31:05;-3.78;80.07
71128;SHT30;59249;59.736;30.568;2022-11-20T07:33:36;-3.69;80.03
71128;SHT30;59249;59.736;30.568;2022-11-20T07:36:11;-3.68;79.88
71128;SHT30;59249;59.736;30.568;2022-11-20T07:38:44;-3.61;79.80
71128;SHT30;59249;59.736;30.568;2022-11-20T07:41:13;-3.64;79.85
71128;SHT30;59249;59.736;30.568;2022-11-20T07:43:48;-3.71;79.77
71128;SHT30;59249;59.736;30.568;2022-11-20T07:46:16;-3.68;79.92
71128;SHT30;59249;59.736;30.568;2022-11-20T07:48:46;-3.59;80.05
71128;SHT30;59249;59.736;30.568;2022-11-20T07:51:15;-3.59;79.95
71128;SHT30;59249;59.736;30.568;2022-11-20T07:53:44;-3.60;79.82
71128;SHT30;59249;59.736;30.568;2022-11-20T07:56:13;-3.61;79.96
71128;SHT30;59249;59.736;30.568;2022-11-20T07:58:42;-3.55;80.02
71128;SHT30;59249;59.736;30.568;2022-11-20T08:01:13;-3.58;80.00
71128;SHT30;59249;59.736;30.568;2022-11-20T08:03:42;-3.51;80.01
71128;SHT30;59249;59.736;30.568;2022-11-20T08:06:12;-3.51;80.03
71128;SHT30;59249;59.736;30.568;2022-11-20T08:08:43;-3.50;79.97
71128;SHT30;59249;59.736;30.568;2022-11-20T08:11:11;-3.49;80.04
71128;SHT30;59249;59.736;30.568;2022-11-20T08:13:58;-3.37;80.02
71128;SHT30;59249;59.736;30.568;2022-11-20T08:16:47;-3.36;79.88
71128;SHT30;59249;59.736;30.568;2022-11-20T08:19:19;-3.25;79.82
71128;SHT30;59249;59.736;30.568;2022-11-20T08:21:49;-3.20;79.72
71128;SHT30;59249;59.736;30.568;2022-11-20T08:24:18;-3.23;79.72
71128;SHT30;59249;59.736;30.568;2022-11-20T08:26:48;-3.22;79.40
71128;SHT30;59249;59.736;30.568;2022-11-20T08:29:17;-3.31;79.33
71128;SHT30;59249;59.736;30.568;2022-11-20T08:31:46;-3.26;79.77
71128;SHT30;59249;59.736;30.568;2022-11-20T08:34:15;-3.16;79.71
71128;SHT30;59249;59.736;30.568;2022-11-20T08:36:48;-3.16;79.66
71128;SHT30;59249;59.736;30.568;2022-11-20T08:39:17;-3.13;79.66
71128;SHT30;59249;59.736;30.568;2022-11-20T08:41:46;-3.15;79.37
71128;SHT30;59249;59.736;30.568;2022-11-20T08:44:17;-3.10;79.47
71128;SHT30;59249;59.736;30.568;2022-11-20T08:46:46;-3.03;79.44
71128;SHT30;59249;59.736;30.568;2022-11-20T08:49:14;-3.09;79.04
71128;SHT30;59249;59.736;30.568;2022-11-20T08:51:45;-3.01;79.10
71128;SHT30;59249;59.736;30.568;2022-11-20T08:54:21;-2.97;79.03
71128;SHT30;59249;59.736;30.568;2022-11-20T08:56:53;-3.06;79.19
71128;SHT30;59249;59.736;30.568;2022-11-20T08:59:26;-3.06;78.86
71128;SHT30;59249;59.736;30.568;2022-11-20T09:02:19;-3.02;78.98
71128;SHT30;59249;59.736;30.568;2022-11-20T09:04:51;-3.03;78.98
71128;SHT30;59249;59.736;30.568;2022-11-20T09:07:20;-3.01;78.95
71128;SHT30;59249;59.736;30.568;2022-11-20T09:09:50;-3.01;78.78
71128;SHT30;59249;59.736;30.568;2022-11-20T09:12:39;-2.97;78.86
71128;SHT30;59249;59.736;30.568;2022-11-20T09:15:09;-2.95;78.75
71128;SHT30;59249;59.736;30.568;2022-11-20T09:17:38;-2.92;78.84
71128;SHT30;59249;59.736;30.568;2022-11-20T09:20:08;-2.96;78.73
71128;SHT30;59249;59.736;30.568;2022-11-20T09:22:39;-2.95;78.73
71128;SHT30;59249;59.736;30.568;2022-11-20T09:25:10;-2.92;78.67
71128;SHT30;59249;59.736;30.568;2022-11-20T09:27:39;-2.95;78.73
71128;SHT30;59249;59.736;30.568;2022-11-20T09:35:47;-2.88;78.52
71128;SHT30;59249;59.736;30.568;2022-11-20T09:38:42;-2.90;78.47
71128;SHT30;59249;59.736;30.568;2022-11-20T09:41:41;-2.91;78.17
71128;SHT30;59249;59.736;30.568;2022-11-20T09:44:30;-2.99;78.25
71128;SHT30;59249;59.736;30.568;2022-11-20T09:47:12;-2.90;78.34
71128;SHT30;59249;59.736;30.568;2022-11-20T09:50:02;-2.88;78.43
71128;SHT30;59249;59.736;30.568;2022-11-20T09:52:51;-2.87;78.45
71128;SHT30;59249;59.736;30.568;2022-11-20T09:55:25;-2.81;78.55
71128;SHT30;59249;59.736;30.568;2022-11-20T09:57:57;-2.81;78.40
71128;SHT30;59249;59.736;30.568;2022-11-20T10:00:28;-2.80;78.41
71128;SHT30;59249;59.736;30.568;2022-11-20T10:03:03;-2.74;78.50
71128;SHT30;59249;59.736;30.568;2022-11-20T10:05:41;-2.73;78.25
71128;SHT30;59249;59.736;30.568;2022-11-20T10:08:19;-2.74;78.10
71128;SHT30;59249;59.736;30.568;2022-11-20T10:10:58;-2.73;78.53
71128;SHT30;59249;59.736;30.568;2022-11-20T10:13:45;-2.77;78.39
71128;SHT30;59249;59.736;30.568;2022-11-20T10:16:26;-2.71;78.46
71128;SHT30;59249;59.736;30.568;2022-11-20T10:19:29;-2.59;78.37
71128;SHT30;59249;59.736;30.568;2022-11-20T10:22:14;-2.53;78.42
71128;SHT30;59249;59.736;30.568;2022-11-20T10:24:56;-2.40;78.26
71128;SHT30;59249;59.736;30.568;2022-11-20T10:27:56;-2.44;78.19
71128;SHT30;59249;59.736;30.568;2022-11-20T10:30:34;-2.40;78.17
71128;SHT30;59249;59.736;30.568;2022-11-20T10:33:13;-2.41;78.13
71128;SHT30;59249;59.736;30.568;2022-11-20T10:35:54;-2.38;78.13
71128;SHT30;59249;59.736;30.568;2022-11-20T10:38:33;-2.35;78.11
71128;SHT30;59249;59.736;30.568;2022-11-20T10:41:05;-2.43;78.29
71128;SHT30;59249;59.736;30.568;2022-11-20T10:44:02;-2.34;78.12
71128;SHT30;59249;59.736;30.568;2022-11-20T10:46:41;-2.32;77.88
71128;SHT30;59249;59.736;30.568;2022-11-20T10:49:17;-2.50;77.89
71128;SHT30;59249;59.736;30.568;2022-11-20T10:52:00;-2.51;78.32
71128;SHT30;59249;59.736;30.568;2022-11-20T10:54:42;-2.49;78.36
71128;SHT30;59249;59.736;30.568;2022-11-20T10:57:29;-2.36;78.44
71128;SHT30;59249;59.736;30.568;2022-11-20T11:00:06;-2.34;78.41
71128;SHT30;59249;59.736;30.568;2022-11-20T11:02:43;-2.23;78.43
71128;SHT30;59249;59.736;30.568;2022-11-20T11:05:31;-2.26;77.93
71128;SHT30;59249;59.736;30.568;2022-11-20T11:08:03;-2.27;78.21
71128;SHT30;59249;59.736;30.568;2022-11-20T11:10:41;-2.25;78.26
71128;SHT30;59249;59.736;30.568;2022-11-20T11:13:23;-2.29;78.37
71128;SHT30;59249;59.736;30.568;2022-11-20T11:15:52;-2.14;78.35
71128;SHT30;59249;59.736;30.568;2022-11-20T11:18:28;-2.18;78.20
71128;SHT30;59249;59.736;30.568;2022-11-20T11:20:59;-2.21;78.01
71128;SHT30;59249;59.736;30.568;2022-11-20T11:23:34;-2.34;78.48
71128;SHT30;59249;59.736;30.568;2022-11-20T11:26:06;-2.27;78.54
71128;SHT30;59249;59.736;30.568;2022-11-20T11:28:36;-2.28;78.51
71128;SHT30;59249;59.736;30.568;2022-11-20T11:31:05;-2.22;78.42
71128;SHT30;59249;59.736;30.568;2022-11-20T11:33:35;-2.25;78.51
71128;SHT30;59249;59.736;30.568;2022-11-20T11:36:18;-2.23;78.40
71128;SHT30;59249;59.736;30.568;2022-11-20T11:38:52;-2.17;78.47
71128;SHT30;59249;59.736;30.568;2022-11-20T11:41:26;-2.17;78.57
71128;SHT30;59249;59.736;30.568;2022-11-20T11:44:16;-2.34;78.50
71128;SHT30;59249;59.736;30.568;2022-11-20T11:47:06;-2.36;78.68
71128;SHT30;59249;59.736;30.568;2022-11-20T11:49:39;-2.34;78.86
71128;SHT30;59249;59.736;30.568;2022-11-20T11:52:14;-2.28;78.95
71128;SHT30;59249;59.736;30.568;2022-11-20T11:54:52;-2.33;78.86
71128;SHT30;59249;59.736;30.568;2022-11-20T11:57:28;-2.30;78.86
71128;SHT30;59249;59.736;30.568;2022-11-20T12:00:05;-2.38;79.00
71128;SHT30;59249;59.736;30.568;2022-11-20T12:02:53;-2.38;78.96
71128;SHT30;59249;59.736;30.568;2022-11-20T12:05:30;-2.38;78.86
71128;SHT30;59249;59.736;30.568;2022-11-20T12:08:13;-2.28;78.98
71128;SHT30;59249;59.736;30.568;2022-11-20T12:10:49;-2.25;79.09
71128;SHT30;59249;59.736;30.568;2022-11-20T12:13:42;-2.33;79.04
71128;SHT30;59249;59.736;30.568;2022-11-20T12:16:17;-2.26;79.00
71128;SHT30;59249;59.736;30.568;2022-11-20T12:18:51;-2.22;79.04
71128;SHT30;59249;59.736;30.568;2022-11-20T12:21:33;-2.20;78.81
71128;SHT30;59249;59.736;30.568;2022-11-20T12:24:35;-2.25;79.05
71128;SHT30;59249;59.736;30.568;2022-11-20T12:27:43;-2.15;79.05
71128;SHT30;59249;59.736;30.568;2022-11-20T12:30:19;-2.26;79.23
71128;SHT30;59249;59.736;30.568;2022-11-20T12:33:08;-2.15;79.26
71128;SHT30;59249;59.736;30.568;2022-11-20T12:35:58;-2.10;79.04
71128;SHT30;59249;59.736;30.568;2022-11-20T12:38:58;-2.19;79.04
71128;SHT30;59249;59.736;30.568;2022-11-20T12:41:49;-2.19;79.10
71128;SHT30;59249;59.736;30.568;2022-11-20T12:45:05;-2.25;79.48
71128;SHT30;59249;59.736;30.568;2022-11-20T12:48:06;-2.22;79.57
71128;SHT30;59249;59.736;30.568;2022-11-20T12:50:51;-2.17;79.46
71128;SHT30;59249;59.736;30.568;2022-11-20T12:54:04;-2.20;79.44
71128;SHT30;59249;59.736;30.568;2022-11-20T12:56:45;-2.15;79.37
71128;SHT30;59249;59.736;30.568;2022-11-20T12:59:46;-2.11;79.45
71128;SHT30;59249;59.736;30.568;2022-11-20T13:02:25;-2.15;79.73
71128;SHT30;59249;59.736;30.568;2022-11-20T13:05:18;-2.21;79.59
71128;SHT30;59249;59.736;30.568;2022-11-20T13:07:50;-2.14;79.66
71128;SHT30;59249;59.736;30.568;2022-11-20T13:10:33;-2.24;79.88
71128;SHT30;59249;59.736;30.568;2022-11-20T13:13:14;-2.23;79.73
71128;SHT30;59249;59.736;30.568;2022-11-20T13:15:59;-2.29;79.69
71128;SHT30;59249;59.736;30.568;2022-11-20T13:18:37;-2.28;79.82
71128;SHT30;59249;59.736;30.568;2022-11-20T13:21:19;-2.23;79.90
71128;SHT30;59249;59.736;30.568;2022-11-20T13:23:49;-2.27;79.82
71128;SHT30;59249;59.736;30.568;2022-11-20T13:26:23;-2.30;79.82
71128;SHT30;59249;59.736;30.568;2022-11-20T13:29:08;-2.26;79.88
71128;SHT30;59249;59.736;30.568;2022-11-20T13:31:43;-2.27;79.93
71128;SHT30;59249;59.736;30.568;2022-11-20T13:34:24;-2.34;79.77
71128;SHT30;59249;59.736;30.568;2022-11-20T13:36:56;-2.27;79.87
71128;SHT30;59249;59.736;30.568;2022-11-20T13:39:27;-2.34;79.81
71128;SHT30;59249;59.736;30.568;2022-11-20T13:41:59;-2.31;79.94
71128;SHT30;59249;59.736;30.568;2022-11-20T13:44:35;-2.31;79.98
71128;SHT30;59249;59.736;30.568;2022-11-20T13:47:21;-2.34;80.20
71128;SHT30;59249;59.736;30.568;2022-11-20T13:49:55;-2.29;80.31
71128;SHT30;59249;59.736;30.568;2022-11-20T13:52:44;-2.27;80.65
71128;SHT30;59249;59.736;30.568;2022-11-20T13:55:23;-2.27;81.02
71128;SHT30;59249;59.736;30.568;2022-11-20T13:58:15;-2.27;80.90
71128;SHT30;59249;59.736;30.568;2022-11-20T14:00:54;-2.18;80.94
71128;SHT30;59249;59.736;30.568;2022-11-20T14:03:29;-2.25;81.11
71128;SHT30;59249;59.736;30.568;2022-11-20T14:06:42;-2.32;81.44
71128;SHT30;59249;59.736;30.568;2022-11-20T14:09:24;-2.35;81.50
71128;SHT30;59249;59.736;30.568;2022-11-20T14:11:55;-2.45;81.81
71128;SHT30;59249;59.736;30.568;2022-11-20T14:14:28;-2.45;82.10
71128;SHT30;59249;59.736;30.568;2022-11-20T14:17:08;-2.46;81.86
71128;SHT30;59249;59.736;30.568;2022-11-20T14:19:47;-2.48;82.09
71128;SHT30;59249;59.736;30.568;2022-11-20T14:22:20;-2.43;81.94
71128;SHT30;59249;59.736;30.568;2022-11-20T14:25:04;-2.50;82.11
71128;SHT30;59249;59.736;30.568;2022-11-20T14:27:38;-2.50;82.04
71128;SHT30;59249;59.736;30.568;2022-11-20T14:30:21;-2.50;82.13
71128;SHT30;59249;59.736;30.568;2022-11-20T14:32:55;-2.43;82.03
71128;SHT30;59249;59.736;30.568;2022-11-20T14:35:29;-2.36;81.90
71128;SHT30;59249;59.736;30.568;2022-11-20T14:38:00;-2.51;82.13
71128;SHT30;59249;59.736;30.568;2022-11-20T14:40:32;-2.53;82.04
71128;SHT30;59249;59.736;30.568;2022-11-20T14:43:18;-2.50;82.14
71128;SHT30;59249;59.736;30.568;2022-11-20T14:45:56;-2.48;82.26
71128;SHT30;59249;59.736;30.568;2022-11-20T14:48:32;-2.51;82.26
71128;SHT30;59249;59.736;30.568;2022-11-20T14:51:03;-2.47;82.19
71128;SHT30;59249;59.736;30.568;2022-11-20T14:56:22;-2.33;81.99
71128;SHT30;59249;59.736;30.568;2022-11-20T14:58:57;-2.48;81.74
71128;SHT30;59249;59.736;30.568;2022-11-20T15:01:30;-2.48;81.99
71128;SHT30;59249;59.736;30.568;2022-11-20T15:04:04;-2.53;81.83
71128;SHT30;59249;59.736;30.568;2022-11-20T15:06:34;-2.55;81.94
71128;SHT30;59249;59.736;30.568;2022-11-20T15:09:04;-2.50;82.06
71128;SHT30;59249;59.736;30.568;2022-11-20T15:11:36;-2.43;81.78
71128;SHT30;59249;59.736;30.568;2022-11-20T15:14:08;-2.43;81.86
71128;SHT30;59249;59.736;30.568;2022-11-20T15:16:39;-2.39;81.64
71128;SHT30;59249;59.736;30.568;2022-11-20T15:19:17;-2.46;81.84
71128;SHT30;59249;59.736;30.568;2022-11-20T15:21:48;-2.46;81.87
71128;SHT30;59249;59.736;30.568;2022-11-20T15:24:18;-2.48;81.86
71128;SHT30;59249;59.736;30.568;2022-11-20T15:26:49;-2.41;81.77
71128;SHT30;59249;59.736;30.568;2022-11-20T15:29:18;-2.48;81.84
71128;SHT30;59249;59.736;30.568;2022-11-20T15:31:50;-2.55;81.77
71128;SHT30;59249;59.736;30.568;2022-11-20T15:34:20;-2.62;82.09
71128;SHT30;59249;59.736;30.568;2022-11-20T15:36:52;-2.53;82.08
71128;SHT30;59249;59.736;30.568;2022-11-20T15:39:28;-2.55;82.26
71128;SHT30;59249;59.736;30.568;2022-11-20T15:41:59;-2.50;82.30
71128;SHT30;59249;59.736;30.568;2022-11-20T15:44:29;-2.48;82.34
71128;SHT30;59249;59.736;30.568;2022-11-20T15:46:59;-2.50;82.22
71128;SHT30;59249;59.736;30.568;2022-11-20T15:49:28;-2.44;82.19
71128;SHT30;59249;59.736;30.568;2022-11-20T15:51:57;-2.47;82.02
71128;SHT30;59249;59.736;30.568;2022-11-20T15:54:27;-2.44;82.20
71128;SHT30;59249;59.736;30.568;2022-11-20T15:56:55;-2.41;82.11
71128;SHT30;59249;59.736;30.568;2022-11-20T15:59:28;-2.44;82.23
71128;SHT30;59249;59.736;30.568;2022-11-20T16:01:56;-2.48;82.22
71128;SHT30;59249;59.736;30.568;2022-11-20T16:04:27;-2.49;82.15
71128;SHT30;59249;59.736;30.568;2022-11-20T16:06:56;-2.55;82.21
71128;SHT30;59249;59.736;30.568;2022-11-20T16:09:25;-2.53;82.34
71128;SHT30;59249;59.736;30.568;2022-11-20T16:11:54;-2.52;82.39
71128;SHT30;59249;59.736;30.568;2022-11-20T16:14:25;-2.49;82.56
71128;SHT30;59249;59.736;30.568;2022-11-20T16:17:12;-2.38;82.27
71128;SHT30;59249;59.736;30.568;2022-11-20T16:19:42;-2.44;82.38